Time;durP1;ratioP1;P1;durP2;ratioP2;P2;SDS_P1;SDS_P2;PMS_P1;PMS_P2;Temp;Humidity;BMP_temperature;BMP_pressure;BME280_temperature;BME280_humidity;BME280_pressure;Samples;Min_cycle;Max_cycle;Signal;HPM_P1;HPM_P2
2024/01/03 00:01:12;;;;;;;58.93;19.37;;;;;;;;;;5050442;28;20691;-81
2024/01/03 00:03:40;;;;;;;53.97;20.20;;;;;;;;;;5055377;28;20270;-82
2024/01/03 00:06:08;;;;;;;56.97;19.93;;;;;;;;;;5056217;28;20295;-83
2024/01/03 00:08:38;;;;;;;48.20;17.47;;;;;;;;;;5055526;28;20218;-83
2024/01/03 00:11:05;;;;;;;54.60;18.83;;;;;;;;;;5054723;28;20242;-83
2024/01/03 00:13:35;;;;;;;42.80;16.73;;;;;;;;;;5054604;28;20278;-83
2024/01/03 00:16:06;;;;;;;67.00;23.37;;;;;;;;;;5055801;28;20199;-83
2024/01/03 00:18:38;;;;;;;45.30;17.13;;;;;;;;;;5055118;28;20193;-83
2024/01/03 00:21:07;;;;;;;33.80;15.27;;;;;;;;;;5054885;28;20192;-83
2024/01/03 00:24:07;;;;;;;42.37;17.87;;;;;;;;;;5038246;28;20228;-84
2024/01/03 00:26:36;;;;;;;58.67;23.20;;;;;;;;;;5054144;28;20199;-83
2024/01/03 00:29:05;;;;;;;67.57;20.67;;;;;;;;;;5054145;28;20850;-83
2024/01/03 00:31:43;;;;;;;47.87;17.50;;;;;;;;;;5054670;28;20843;-83
2024/01/03 00:34:23;;;;;;;37.17;14.40;;;;;;;;;;5054476;28;20192;-83
2024/01/03 00:36:53;;;;;;;39.30;17.10;;;;;;;;;;5055324;28;20257;-83
2024/01/03 00:39:27;;;;;;;34.80;15.97;;;;;;;;;;5053765;28;20290;-79
2024/01/03 00:41:55;;;;;;;47.60;16.50;;;;;;;;;;5037047;28;20211;-82
2024/01/03 00:44:23;;;;;;;51.07;17.70;;;;;;;;;;5053988;28;20236;-83
2024/01/03 00:46:51;;;;;;;36.40;16.30;;;;;;;;;;5055284;28;20561;-83
2024/01/03 00:49:18;;;;;;;53.53;19.20;;;;;;;;;;5037521;28;20204;-83
2024/01/03 00:51:48;;;;;;;54.53;18.33;;;;;;;;;;5053800;28;20216;-82
2024/01/03 00:54:16;;;;;;;43.97;17.47;;;;;;;;;;5053939;28;20196;-83
2024/01/03 00:56:45;;;;;;;35.67;16.57;;;;;;;;;;5055201;28;20184;-83
2024/01/03 00:59:12;;;;;;;54.67;23.10;;;;;;;;;;5037464;28;20196;-83
2024/01/03 01:01:40;;;;;;;107.80;27.07;;;;;;;;;;5053817;28;20200;-82
2024/01/03 01:04:08;;;;;;;53.73;18.97;;;;;;;;;;5054637;28;20231;-83
2024/01/03 01:06:35;;;;;;;42.07;15.47;;;;;;;;;;5053559;28;20195;-83
2024/01/03 01:09:04;;;;;;;121.83;54.00;;;;;;;;;;5053692;28;20203;-82
2024/01/03 01:11:31;;;;;;;103.50;26.93;;;;;;;;;;5053801;28;20192;-82
2024/01/03 01:13:58;;;;;;;125.03;28.67;;;;;;;;;;5053708;28;20212;-83
2024/01/03 01:16:26;;;;;;;38.93;15.77;;;;;;;;;;5053491;28;20196;-83
2024/01/03 01:18:53;;;;;;;50.47;18.50;;;;;;;;;;5054632;28;20204;-83
2024/01/03 01:21:20;;;;;;;88.37;26.77;;;;;;;;;;5054718;28;20203;-82
2024/01/03 01:23:48;;;;;;;56.10;16.57;;;;;;;;;;5053287;28;20223;-83
2024/01/03 01:26:15;;;;;;;45.83;16.57;;;;;;;;;;5054868;28;20211;-83
2024/01/03 01:28:43;;;;;;;50.13;16.90;;;;;;;;;;5055558;28;20698;-84
2024/01/03 01:31:10;;;;;;;115.47;42.57;;;;;;;;;;5037881;28;20203;-83
2024/01/03 01:33:37;;;;;;;96.60;26.87;;;;;;;;;;5053102;28;20668;-84
2024/01/03 01:36:05;;;;;;;42.50;16.23;;;;;;;;;;5037151;28;20200;-84
2024/01/03 01:38:32;;;;;;;97.70;25.43;;;;;;;;;;5054608;28;20204;-84
2024/01/03 01:40:59;;;;;;;358.83;130.47;;;;;;;;;;5054444;28;20240;-83
2024/01/03 01:43:26;;;;;;;258.80;52.93;;;;;;;;;;5053088;28;20239;-83
2024/01/03 01:45:53;;;;;;;134.17;31.37;;;;;;;;;;5054683;28;20200;-83
2024/01/03 01:48:21;;;;;;;98.63;24.93;;;;;;;;;;5054062;28;20203;-83
2024/01/03 01:50:49;;;;;;;118.30;27.77;;;;;;;;;;5054174;28;20200;-83
2024/01/03 01:53:16;;;;;;;113.53;34.50;;;;;;;;;;5052937;28;20206;-83
2024/01/03 01:55:43;;;;;;;95.47;24.17;;;;;;;;;;5054241;28;20204;-83
2024/01/03 01:58:11;;;;;;;39.50;15.47;;;;;;;;;;5036326;28;20287;-83
2024/01/03 02:00:39;;;;;;;29.23;12.80;;;;;;;;;;5052655;28;20200;-83
2024/01/03 02:03:07;;;;;;;69.33;30.10;;;;;;;;;;5035785;28;20231;-82
2024/01/03 02:05:37;;;;;;;50.17;18.13;;;;;;;;;;5053600;28;20196;-83
2024/01/03 02:08:08;;;;;;;31.93;13.73;;;;;;;;;;5052385;28;20204;-84
2024/01/03 02:10:36;;;;;;;28.73;13.73;;;;;;;;;;5053676;28;20223;-83
2024/01/03 02:13:03;;;;;;;46.47;18.50;;;;;;;;;;5053327;28;20204;-84
2024/01/03 02:15:31;;;;;;;62.90;20.23;;;;;;;;;;5053098;28;20203;-84
2024/01/03 02:17:59;;;;;;;90.70;22.77;;;;;;;;;;5052694;28;20204;-84
2024/01/03 02:20:31;;;;;;;54.20;17.67;;;;;;;;;;5054060;28;20611;-84
2024/01/03 02:22:59;;;;;;;90.73;25.93;;;;;;;;;;5052000;28;20223;-84
2024/01/03 02:25:26;;;;;;;71.70;25.23;;;;;;;;;;5051715;28;20250;-84
2024/01/03 02:27:53;;;;;;;62.33;19.57;;;;;;;;;;5054177;28;20525;-84
2024/01/03 02:30:21;;;;;;;49.60;15.70;;;;;;;;;;5054431;28;20565;-84
2024/01/03 02:32:48;;;;;;;41.73;13.77;;;;;;;;;;5052952;28;20204;-84
2024/01/03 02:35:16;;;;;;;72.20;30.47;;;;;;;;;;5054267;28;20204;-84
2024/01/03 02:37:43;;;;;;;76.37;22.60;;;;;;;;;;5053025;28;20257;-84
2024/01/03 02:40:10;;;;;;;28.80;12.20;;;;;;;;;;5054134;28;20207;-86
2024/01/03 02:42:37;;;;;;;28.93;12.50;;;;;;;;;;5053198;28;20196;-85
2024/01/03 02:45:05;;;;;;;38.97;14.47;;;;;;;;;;5054262;28;20172;-84
2024/01/03 02:47:32;;;;;;;65.17;20.13;;;;;;;;;;5053022;28;20203;-85
2024/01/03 02:50:00;;;;;;;37.33;13.80;;;;;;;;;;5054470;28;20203;-84
2024/01/03 02:52:27;;;;;;;51.93;16.57;;;;;;;;;;5054378;28;20509;-85
2024/01/03 02:54:54;;;;;;;112.43;25.67;;;;;;;;;;5054341;28;20191;-85
2024/01/03 02:57:23;;;;;;;47.30;21.90;;;;;;;;;;5053065;28;20220;-85
2024/01/03 02:59:51;;;;;;;53.60;16.77;;;;;;;;;;5054147;28;20196;-84
2024/01/03 03:02:18;;;;;;;59.03;17.57;;;;;;;;;;5052727;28;20224;-84
2024/01/03 03:04:45;;;;;;;30.37;13.23;;;;;;;;;;5053677;28;20238;-84
2024/01/03 03:07:12;;;;;;;52.07;21.23;;;;;;;;;;5053866;28;20204;-85
2024/01/03 03:09:40;;;;;;;138.10;30.43;;;;;;;;;;5054045;28;20196;-84
2024/01/03 03:12:07;;;;;;;56.50;17.53;;;;;;;;;;5053461;28;20192;-83
2024/01/03 03:14:34;;;;;;;42.97;15.93;;;;;;;;;;5053135;28;20212;-84
2024/01/03 03:17:01;;;;;;;74.30;21.63;;;;;;;;;;5052992;28;20922;-83
2024/01/03 03:19:29;;;;;;;144.93;38.43;;;;;;;;;;5052554;28;20203;-83
2024/01/03 03:21:56;;;;;;;64.50;18.40;;;;;;;;;;5052623;28;20273;-85
2024/01/03 03:24:23;;;;;;;42.60;15.80;;;;;;;;;;5053821;28;20227;-84
2024/01/03 03:26:50;;;;;;;84.37;22.70;;;;;;;;;;5053203;28;20215;-85
2024/01/03 03:29:18;;;;;;;123.10;49.00;;;;;;;;;;5052605;28;20262;-83
2024/01/03 03:31:45;;;;;;;118.10;28.37;;;;;;;;;;5052117;28;20215;-82
2024/01/03 03:34:12;;;;;;;55.27;16.57;;;;;;;;;;5052098;28;20216;-82
2024/01/03 03:36:39;;;;;;;44.83;15.60;;;;;;;;;;5053328;28;20210;-85
2024/01/03 03:39:07;;;;;;;72.37;25.03;;;;;;;;;;5060196;28;20191;-84
2024/01/03 03:41:35;;;;;;;117.17;27.77;;;;;;;;;;5057760;28;20242;-81
2024/01/03 03:44:02;;;;;;;86.17;21.30;;;;;;;;;;5057343;28;20232;-83
2024/01/03 03:46:29;;;;;;;48.27;14.90;;;;;;;;;;5058400;28;20672;-82
2024/01/03 03:48:57;;;;;;;31.33;12.40;;;;;;;;;;5058760;28;20656;-83
2024/01/03 03:51:24;;;;;;;111.80;40.60;;;;;;;;;;5058531;28;20207;-84
2024/01/03 03:53:51;;;;;;;104.67;23.30;;;;;;;;;;5059221;28;20204;-83
2024/01/03 03:56:25;;;;;;;61.53;18.37;;;;;;;;;;5059187;28;20664;-84
2024/01/03 03:58:53;;;;;;;79.10;20.63;;;;;;;;;;5057272;28;20188;-82
2024/01/03 04:01:19;;;;;;;57.90;28.10;;;;;;;;;;5058333;28;20196;-82
2024/01/03 04:03:47;;;;;;;53.90;15.37;;;;;;;;;;5057289;28;20226;-82
2024/01/03 04:06:15;;;;;;;38.13;13.73;;;;;;;;;;5058655;28;20192;-82
2024/01/03 04:08:44;;;;;;;105.97;23.87;;;;;;;;;;5059357;28;20200;-84
2024/01/03 04:11:12;;;;;;;73.33;21.37;;;;;;;;;;5059699;28;20234;-84
2024/01/03 04:13:39;;;;;;;187.13;45.77;;;;;;;;;;5059399;28;20649;-84
2024/01/03 04:16:09;;;;;;;84.33;21.63;;;;;;;;;;5059800;28;20211;-84
2024/01/03 04:18:37;;;;;;;143.47;32.40;;;;;;;;;;5058267;28;20239;-82
2024/01/03 04:21:06;;;;;;;112.03;25.53;;;;;;;;;;5058588;28;20660;-80
2024/01/03 04:23:34;;;;;;;192.47;70.60;;;;;;;;;;5058238;28;20230;-79
2024/01/03 04:26:01;;;;;;;162.23;34.77;;;;;;;;;;5056640;28;20660;-83
2024/01/03 04:28:28;;;;;;;116.63;27.47;;;;;;;;;;5050077;28;20671;-83
2024/01/03 04:30:55;;;;;;;122.43;30.63;;;;;;;;;;5045358;28;20207;-83
2024/01/03 04:33:23;;;;;;;265.90;82.97;;;;;;;;;;5048468;28;20197;-82
2024/01/03 04:35:50;;;;;;;226.80;44.63;;;;;;;;;;5056836;28;20206;-82
2024/01/03 04:38:17;;;;;;;48.30;15.97;;;;;;;;;;5058299;28;20571;-82
2024/01/03 04:40:45;;;;;;;32.57;12.70;;;;;;;;;;5057812;28;20204;-82
2024/01/03 04:43:12;;;;;;;51.20;15.10;;;;;;;;;;5057626;28;20239;-81
2024/01/03 04:45:39;;;;;;;61.30;19.13;;;;;;;;;;5056387;28;20200;-82
2024/01/03 04:48:07;;;;;;;59.80;16.10;;;;;;;;;;5056732;28;20684;-82
2024/01/03 04:50:34;;;;;;;33.07;11.57;;;;;;;;;;5054492;28;20205;-81
2024/01/03 04:53:02;;;;;;;28.30;10.67;;;;;;;;;;5054945;28;20196;-82
2024/01/03 04:55:29;;;;;;;48.37;23.10;;;;;;;;;;5054860;28;20204;-81
2024/01/03 04:57:58;;;;;;;39.30;13.17;;;;;;;;;;5053630;28;20212;-81
2024/01/03 05:00:25;;;;;;;33.80;12.27;;;;;;;;;;5053672;28;20222;-81
2024/01/03 05:02:54;;;;;;;35.20;12.37;;;;;;;;;;5051575;28;20204;-82
2024/01/03 05:05:21;;;;;;;45.47;16.87;;;;;;;;;;5038257;28;20945;-81
2024/01/03 05:07:49;;;;;;;66.90;18.77;;;;;;;;;;5052102;28;20236;-81
2024/01/03 05:10:15;;;;;;;41.17;13.33;;;;;;;;;;5052278;28;20232;-82
2024/01/03 05:12:43;;;;;;;52.33;13.63;;;;;;;;;;5051946;28;20240;-81
2024/01/03 05:15:10;;;;;;;28.07;11.37;;;;;;;;;;5050891;28;20228;-82
2024/01/03 05:17:37;;;;;;;41.53;18.97;;;;;;;;;;5051728;28;20232;-81
2024/01/03 05:20:05;;;;;;;59.70;15.90;;;;;;;;;;5036618;28;20786;-84
2024/01/03 05:22:33;;;;;;;36.80;11.27;;;;;;;;;;5042032;28;20224;-81
2024/01/03 05:25:00;;;;;;;24.37;9.97;;;;;;;;;;5051798;28;20334;-80
2024/01/03 05:27:27;;;;;;;97.40;35.67;;;;;;;;;;5053236;28;20235;-82
2024/01/03 05:29:54;;;;;;;107.50;23.20;;;;;;;;;;5053376;28;20232;-81
2024/01/03 05:32:26;;;;;;;50.43;13.60;;;;;;;;;;5053639;28;20220;-81
2024/01/03 05:34:53;;;;;;;24.13;8.80;;;;;;;;;;5052243;28;20310;-82
2024/01/03 05:37:21;;;;;;;116.67;28.30;;;;;;;;;;5053551;28;20236;-81
2024/01/03 05:39:47;;;;;;;101.47;27.43;;;;;;;;;;5052948;28;20239;-81
2024/01/03 05:42:15;;;;;;;49.77;13.87;;;;;;;;;;5050361;28;20369;-81
2024/01/03 05:44:42;;;;;;;77.63;20.23;;;;;;;;;;5052726;28;20252;-82
2024/01/03 05:47:09;;;;;;;103.50;24.57;;;;;;;;;;5053222;28;20227;-82
2024/01/03 05:49:36;;;;;;;88.63;39.53;;;;;;;;;;5051899;28;20251;-82
2024/01/03 05:52:04;;;;;;;92.47;24.77;;;;;;;;;;5053063;28;20239;-81
2024/01/03 05:54:32;;;;;;;73.60;19.03;;;;;;;;;;5052076;28;20236;-83
2024/01/03 05:57:00;;;;;;;46.87;14.53;;;;;;;;;;5053107;28;20269;-81
2024/01/03 05:59:28;;;;;;;214.07;80.47;;;;;;;;;;5053002;28;20208;-82
2024/01/03 06:01:55;;;;;;;103.87;23.97;;;;;;;;;;5053222;28;20215;-81
2024/01/03 06:04:22;;;;;;;85.53;19.03;;;;;;;;;;5053072;28;20227;-82
2024/01/03 06:06:49;;;;;;;86.13;20.47;;;;;;;;;;5053318;28;20208;-82
2024/01/03 06:09:17;;;;;;;75.00;18.60;;;;;;;;;;5053120;28;20230;-81
2024/01/03 06:11:45;;;;;;;172.83;43.23;;;;;;;;;;5053265;28;20216;-82
2024/01/03 06:14:12;;;;;;;99.13;21.00;;;;;;;;;;5053396;28;20638;-81
2024/01/03 06:16:39;;;;;;;100.00;21.47;;;;;;;;;;5053120;28;20219;-81
2024/01/03 06:19:06;;;;;;;99.50;22.97;;;;;;;;;;5052827;28;20227;-80
2024/01/03 06:21:33;;;;;;;156.70;61.80;;;;;;;;;;5052743;28;20200;-80
2024/01/03 06:24:00;;;;;;;98.50;22.83;;;;;;;;;;5053205;28;20318;-80
2024/01/03 06:26:30;;;;;;;104.97;23.70;;;;;;;;;;5052851;28;20337;-81
2024/01/03 06:28:57;;;;;;;72.53;17.60;;;;;;;;;;5052836;28;20204;-81
2024/01/03 06:31:25;;;;;;;141.40;48.90;;;;;;;;;;5052648;28;20211;-80
2024/01/03 06:33:52;;;;;;;107.83;25.30;;;;;;;;;;5052654;28;20594;-81
2024/01/03 06:36:20;;;;;;;99.07;20.93;;;;;;;;;;5052478;28;20211;-80
2024/01/03 06:38:48;;;;;;;105.73;22.37;;;;;;;;;;5053068;28;20208;-80
2024/01/03 06:41:16;;;;;;;90.23;19.97;;;;;;;;;;5052852;28;20192;-80
2024/01/03 06:43:43;;;;;;;317.67;89.07;;;;;;;;;;5052603;28;20294;-81
2024/01/03 06:46:10;;;;;;;81.83;18.33;;;;;;;;;;5051219;28;20527;-80
2024/01/03 06:48:37;;;;;;;81.90;18.40;;;;;;;;;;5052626;28;20235;-81
2024/01/03 06:51:05;;;;;;;76.30;18.40;;;;;;;;;;5052621;28;20204;-81
2024/01/03 06:53:33;;;;;;;137.77;58.83;;;;;;;;;;5052455;28;20542;-82
2024/01/03 06:56:01;;;;;;;62.33;16.37;;;;;;;;;;5052513;28;20557;-80
2024/01/03 06:58:28;;;;;;;62.23;15.47;;;;;;;;;;5052093;28;20796;-81
2024/01/03 07:00:55;;;;;;;57.40;14.50;;;;;;;;;;5050929;28;20572;-81
2024/01/03 07:03:22;;;;;;;161.63;41.80;;;;;;;;;;5052384;28;20247;-81
2024/01/03 07:05:49;;;;;;;164.23;36.83;;;;;;;;;;5051759;28;20242;-80
2024/01/03 07:08:16;;;;;;;91.13;20.53;;;;;;;;;;5052014;28;20282;-81
2024/01/03 07:10:44;;;;;;;63.60;15.07;;;;;;;;;;5051847;28;20677;-81
2024/01/03 07:13:11;;;;;;;77.23;18.67;;;;;;;;;;5051493;28;20188;-81
2024/01/03 07:15:38;;;;;;;148.73;40.30;;;;;;;;;;5051703;28;20200;-80
2024/01/03 07:18:06;;;;;;;75.67;16.07;;;;;;;;;;5052194;28;20218;-81
2024/01/03 07:20:34;;;;;;;61.77;15.53;;;;;;;;;;5050395;28;20580;-81
2024/01/03 07:23:01;;;;;;;49.30;11.83;;;;;;;;;;5051723;28;20215;-81
2024/01/03 07:25:28;;;;;;;168.73;47.70;;;;;;;;;;5051835;28;20223;-80
2024/01/03 07:27:55;;;;;;;191.90;36.43;;;;;;;;;;5051920;28;20574;-80
2024/01/03 07:30:25;;;;;;;127.20;22.07;;;;;;;;;;5052041;28;20200;-81
2024/01/03 07:32:56;;;;;;;128.30;25.83;;;;;;;;;;5051838;28;20564;-81
2024/01/03 07:35:24;;;;;;;91.70;19.43;;;;;;;;;;5051832;28;20575;-82
2024/01/03 07:37:51;;;;;;;95.57;24.60;;;;;;;;;;5051711;28;20211;-82
2024/01/03 07:40:19;;;;;;;42.07;10.73;;;;;;;;;;5051674;28;20207;-80
2024/01/03 07:42:46;;;;;;;26.43;8.67;;;;;;;;;;5051578;28;20232;-81
2024/01/03 07:45:13;;;;;;;25.50;7.23;;;;;;;;;;5051927;28;20223;-80
2024/01/03 07:47:42;;;;;;;26.70;14.40;;;;;;;;;;5051833;28;20204;-80
2024/01/03 07:50:09;;;;;;;23.97;7.83;;;;;;;;;;5051442;28;20204;-81
2024/01/03 07:52:37;;;;;;;18.93;5.67;;;;;;;;;;5051554;28;20614;-80
2024/01/03 07:55:04;;;;;;;13.77;4.73;;;;;;;;;;5050208;28;20218;-81
2024/01/03 07:57:31;;;;;;;34.80;13.97;;;;;;;;;;5051466;28;20227;-80
2024/01/03 07:59:59;;;;;;;12.73;5.03;;;;;;;;;;5051531;28;20207;-80
2024/01/03 08:02:26;;;;;;;14.00;5.10;;;;;;;;;;5051582;28;20218;-81
2024/01/03 08:04:54;;;;;;;9.73;4.40;;;;;;;;;;5050229;28;20236;-80
2024/01/03 08:07:21;;;;;;;13.73;5.47;;;;;;;;;;5051672;28;20204;-81
2024/01/03 08:09:50;;;;;;;37.77;14.30;;;;;;;;;;5051119;28;20212;-80
2024/01/03 08:12:17;;;;;;;15.03;5.13;;;;;;;;;;5051426;28;20204;-81
2024/01/03 08:14:45;;;;;;;22.00;5.97;;;;;;;;;;5051270;28;20231;-80
2024/01/03 08:17:11;;;;;;;19.23;6.00;;;;;;;;;;5051480;28;20204;-81
2024/01/03 08:19:39;;;;;;;32.17;14.27;;;;;;;;;;5051402;28;20258;-81
2024/01/03 08:22:07;;;;;;;28.43;7.43;;;;;;;;;;5051520;28;20206;-81
2024/01/03 08:24:35;;;;;;;18.47;5.80;;;;;;;;;;5053422;28;20232;-81
2024/01/03 08:27:02;;;;;;;71.87;15.87;;;;;;;;;;5055189;28;20212;-80
2024/01/03 08:29:30;;;;;;;70.10;19.23;;;;;;;;;;5054906;28;20242;-81
2024/01/03 08:31:57;;;;;;;59.87;17.50;;;;;;;;;;5055252;28;20200;-81
2024/01/03 08:34:25;;;;;;;17.47;6.07;;;;;;;;;;5054970;28;20204;-80
2024/01/03 08:36:52;;;;;;;120.13;21.07;;;;;;;;;;5055231;28;20254;-81
2024/01/03 08:39:21;;;;;;;55.93;12.50;;;;;;;;;;5054947;28;20223;-81
2024/01/03 08:41:48;;;;;;;74.27;25.47;;;;;;;;;;5054494;28;20554;-81
2024/01/03 08:44:15;;;;;;;20.10;6.77;;;;;;;;;;5036741;28;20227;-81
2024/01/03 08:46:42;;;;;;;19.03;6.27;;;;;;;;;;5054829;28;20208;-81
2024/01/03 08:49:10;;;;;;;10.23;4.70;;;;;;;;;;5054406;28;20216;-81
2024/01/03 08:51:37;;;;;;;98.30;34.43;;;;;;;;;;5054906;28;20234;-81
2024/01/03 08:54:05;;;;;;;56.03;14.27;;;;;;;;;;5054750;28;20234;-80
2024/01/03 08:56:32;;;;;;;48.90;11.93;;;;;;;;;;5054690;28;20203;-82
2024/01/03 08:59:00;;;;;;;26.27;7.57;;;;;;;;;;5054576;28;20215;-80
2024/01/03 09:01:29;;;;;;;22.67;7.37;;;;;;;;;;5054206;28;20214;-81
2024/01/03 09:03:57;;;;;;;247.83;61.93;;;;;;;;;;5054270;28;20249;-81
2024/01/03 09:06:25;;;;;;;123.40;24.60;;;;;;;;;;5054498;28;20228;-80
2024/01/03 09:08:54;;;;;;;120.70;26.70;;;;;;;;;;5054088;28;20610;-80
2024/01/03 09:11:25;;;;;;;85.80;19.40;;;;;;;;;;5053017;28;20258;-80
2024/01/03 09:13:53;;;;;;;171.87;74.17;;;;;;;;;;5054380;28;20275;-81
2024/01/03 09:16:22;;;;;;;143.10;29.50;;;;;;;;;;5054030;28;20219;-81
2024/01/03 09:18:50;;;;;;;134.97;27.60;;;;;;;;;;5052025;28;20199;-81
2024/01/03 09:21:18;;;;;;;53.67;12.63;;;;;;;;;;5034593;28;20228;-80
2024/01/03 09:23:45;;;;;;;261.63;77.80;;;;;;;;;;5053232;28;20236;-81
2024/01/03 09:26:12;;;;;;;55.23;12.53;;;;;;;;;;5045612;28;20237;-81
2024/01/03 09:28:41;;;;;;;97.47;18.93;;;;;;;;;;5046358;28;20236;-80
2024/01/03 09:31:08;;;;;;;130.07;25.30;;;;;;;;;;5052669;28;20238;-80
2024/01/03 09:33:35;;;;;;;70.57;15.10;;;;;;;;;;5052766;28;20688;-81
2024/01/03 09:36:02;;;;;;;465.33;138.00;;;;;;;;;;5051731;28;20232;-81
2024/01/03 09:38:30;;;;;;;217.70;40.70;;;;;;;;;;5053072;28;20274;-81
2024/01/03 09:40:58;;;;;;;52.13;13.47;;;;;;;;;;5052928;28;20255;-81
2024/01/03 09:43:25;;;;;;;37.53;10.80;;;;;;;;;;5052791;28;20243;-82
2024/01/03 09:45:53;;;;;;;178.33;85.57;;;;;;;;;;5052392;28;20665;-81
2024/01/03 09:48:20;;;;;;;120.87;44.47;;;;;;;;;;5051996;28;20231;-81
2024/01/03 09:50:48;;;;;;;154.77;59.40;;;;;;;;;;5051867;28;20236;-81
2024/01/03 09:53:15;;;;;;;127.23;40.20;;;;;;;;;;5052965;28;20219;-81
2024/01/03 09:55:43;;;;;;;186.20;56.47;;;;;;;;;;5050958;28;20330;-81
2024/01/03 09:58:10;;;;;;;191.50;44.37;;;;;;;;;;5052703;28;20281;-81
2024/01/03 10:00:38;;;;;;;83.77;22.47;;;;;;;;;;5052070;28;20263;-82
2024/01/03 10:03:10;;;;;;;155.00;35.57;;;;;;;;;;5052965;28;20228;-81
2024/01/03 10:05:37;;;;;;;97.63;21.93;;;;;;;;;;5051325;28;20231;-81
2024/01/03 10:08:18;;;;;;;92.80;41.50;;;;;;;;;;5052785;28;20298;-81
2024/01/03 10:10:45;;;;;;;149.70;67.70;;;;;;;;;;5052541;28;20247;-80
2024/01/03 10:13:18;;;;;;;219.63;43.27;;;;;;;;;;5035902;28;20212;-81
2024/01/03 10:15:48;;;;;;;107.83;24.50;;;;;;;;;;5031065;28;20561;-81
2024/01/03 10:18:16;;;;;;;268.73;91.07;;;;;;;;;;5032707;28;20203;-81
2024/01/03 10:20:47;;;;;;;196.13;60.17;;;;;;;;;;5031619;28;20250;-80
2024/01/03 10:23:16;;;;;;;155.37;48.30;;;;;;;;;;5032054;28;20201;-81
2024/01/03 10:25:44;;;;;;;314.37;101.37;;;;;;;;;;5035985;28;20231;-81
2024/01/03 10:28:15;;;;;;;401.17;132.83;;;;;;;;;;5052670;28;20211;-81
2024/01/03 10:30:42;;;;;;;408.57;115.50;;;;;;;;;;5052650;28;20212;-81
2024/01/03 10:33:10;;;;;;;496.20;147.33;;;;;;;;;;5047930;28;20875;-80
2024/01/03 10:35:41;;;;;;;661.50;238.53;;;;;;;;;;5052294;28;20235;-81
2024/01/03 10:38:09;;;;;;;671.93;251.07;;;;;;;;;;5052756;28;20211;-81
2024/01/03 10:40:39;;;;;;;562.93;211.83;;;;;;;;;;5052478;28;20207;-81
2024/01/03 10:43:10;;;;;;;555.67;225.03;;;;;;;;;;5052242;28;20235;-81
2024/01/03 10:45:37;;;;;;;304.67;120.27;;;;;;;;;;5052162;28;20672;-80
2024/01/03 10:48:05;;;;;;;209.03;80.97;;;;;;;;;;5051586;28;20325;-81
2024/01/03 10:50:34;;;;;;;388.77;137.00;;;;;;;;;;5051088;28;20208;-81
2024/01/03 10:53:08;;;;;;;271.80;96.10;;;;;;;;;;5052366;28;20192;-80
2024/01/03 10:55:37;;;;;;;448.37;152.97;;;;;;;;;;5052138;28;20207;-80
2024/01/03 10:58:19;;;;;;;33.20;15.30;;;;;;;;;;5052074;28;20245;-81
2024/01/03 11:01:00;;;;;;;142.80;50.10;;;;;;;;;;5037912;28;20260;-81
2024/01/03 11:03:42;;;;;;;285.60;103.77;;;;;;;;;;5031230;28;20583;-81
2024/01/03 11:06:14;;;;;;;93.77;43.47;;;;;;;;;;5044677;28;20231;-81
2024/01/03 11:09:02;;;;;;;407.43;177.60;;;;;;;;;;5039470;28;20228;-80
2024/01/03 11:11:33;;;;;;;66.87;29.43;;;;;;;;;;5040901;28;20239;-81
2024/01/03 11:14:01;;;;;;;51.03;23.67;;;;;;;;;;5050969;28;20236;-80
2024/01/03 11:16:39;;;;;;;430.13;151.23;;;;;;;;;;5050195;28;20231;-81
2024/01/03 11:19:08;;;;;;;398.17;141.67;;;;;;;;;;5051141;28;20243;-81
2024/01/03 11:21:35;;;;;;;305.40;122.47;;;;;;;;;;5050948;28;20712;-81
2024/01/03 11:24:09;;;;;;;261.53;107.53;;;;;;;;;;5051138;28;20282;-81
2024/01/03 11:26:58;;;;;;;180.03;80.27;;;;;;;;;;5050880;28;20244;-81
2024/01/03 11:29:35;;;;;;;82.43;41.30;;;;;;;;;;5050780;28;20228;-82
2024/01/03 11:32:13;;;;;;;64.80;36.77;;;;;;;;;;5050683;28;20255;-81
2024/01/03 11:34:41;;;;;;;85.93;45.10;;;;;;;;;;5046905;28;20268;-81
2024/01/03 11:37:11;;;;;;;133.33;42.23;;;;;;;;;;5048277;28;20285;-81
2024/01/03 11:39:43;;;;;;;175.00;44.03;;;;;;;;;;5051121;28;20228;-81
2024/01/03 11:42:16;;;;;;;138.50;32.50;;;;;;;;;;5050411;28;20304;-81
2024/01/03 11:44:44;;;;;;;152.90;65.50;;;;;;;;;;5049139;28;20231;-81
2024/01/03 11:47:12;;;;;;;188.27;40.03;;;;;;;;;;5030827;28;20232;-81
2024/01/03 11:49:40;;;;;;;109.03;22.57;;;;;;;;;;5033268;28;20224;-81
2024/01/03 11:52:07;;;;;;;135.23;30.60;;;;;;;;;;5050159;28;20381;-82
2024/01/03 11:54:34;;;;;;;120.47;35.37;;;;;;;;;;5050424;28;20281;-81
2024/01/03 11:57:08;;;;;;;89.73;31.70;;;;;;;;;;5050408;28;20242;-81
2024/01/03 11:59:35;;;;;;;95.87;22.87;;;;;;;;;;5054174;28;20258;-81
2024/01/03 12:02:02;;;;;;;55.63;14.80;;;;;;;;;;5054146;28;20239;-81
2024/01/03 12:04:30;;;;;;;58.50;20.70;;;;;;;;;;5054915;28;20235;-81
2024/01/03 12:06:58;;;;;;;85.83;45.53;;;;;;;;;;5054026;28;20335;-81
2024/01/03 12:09:29;;;;;;;95.00;42.70;;;;;;;;;;5055160;28;20219;-81
2024/01/03 12:11:56;;;;;;;134.20;37.73;;;;;;;;;;5054179;28;20228;-81
2024/01/03 12:14:23;;;;;;;40.73;16.80;;;;;;;;;;5054295;28;20228;-81
2024/01/03 12:16:55;;;;;;;44.53;23.07;;;;;;;;;;5053615;28;20696;-80
2024/01/03 12:19:23;;;;;;;199.60;80.17;;;;;;;;;;5054423;28;20592;-81
2024/01/03 12:21:54;;;;;;;162.07;63.67;;;;;;;;;;5054505;28;20252;-82
2024/01/03 12:24:22;;;;;;;457.87;156.43;;;;;;;;;;5055166;28;20253;-81
2024/01/03 12:26:49;;;;;;;234.73;81.37;;;;;;;;;;5047353;28;20236;-81
2024/01/03 12:29:18;;;;;;;24.40;13.43;;;;;;;;;;5034672;28;20231;-81
2024/01/03 12:31:45;;;;;;;24.60;11.27;;;;;;;;;;5034762;28;20568;-82
2024/01/03 12:34:17;;;;;;;471.17;149.30;;;;;;;;;;5034822;28;20271;-81
2024/01/03 12:36:45;;;;;;;401.97;136.63;;;;;;;;;;5037859;28;20204;-81
2024/01/03 12:39:12;;;;;;;21.20;12.67;;;;;;;;;;5054797;28;20204;-81
2024/01/03 12:41:39;;;;;;;20.47;11.63;;;;;;;;;;5054688;28;20692;-81
2024/01/03 12:44:06;;;;;;;19.27;10.17;;;;;;;;;;5054606;28;20262;-81
2024/01/03 12:46:33;;;;;;;52.07;21.33;;;;;;;;;;5054504;28;20224;-81
2024/01/03 12:49:00;;;;;;;138.27;45.00;;;;;;;;;;5054478;28;20188;-81
2024/01/03 12:51:27;;;;;;;26.30;13.20;;;;;;;;;;5054637;28;20210;-81
2024/01/03 12:54:06;;;;;;;17.83;10.17;;;;;;;;;;5054670;28;20204;-80
2024/01/03 12:56:33;;;;;;;17.63;10.53;;;;;;;;;;5054731;28;20291;-80
2024/01/03 12:59:00;;;;;;;18.73;9.67;;;;;;;;;;5054330;28;20204;-80
2024/01/03 13:01:27;;;;;;;20.73;10.00;;;;;;;;;;5054269;28;20216;-81
2024/01/03 13:03:55;;;;;;;85.23;37.30;;;;;;;;;;5054436;28;20211;-80
2024/01/03 13:06:21;;;;;;;28.27;13.63;;;;;;;;;;5054205;28;20648;-80
2024/01/03 13:08:49;;;;;;;23.53;10.83;;;;;;;;;;5054385;28;20196;-80
2024/01/03 13:11:16;;;;;;;25.43;11.70;;;;;;;;;;5053404;28;20215;-81
2024/01/03 13:13:43;;;;;;;22.37;11.23;;;;;;;;;;5054293;28;20196;-81
2024/01/03 13:16:11;;;;;;;23.30;12.80;;;;;;;;;;5054141;28;20295;-81
2024/01/03 13:18:38;;;;;;;119.83;42.80;;;;;;;;;;5054252;28;20204;-80
2024/01/03 13:21:06;;;;;;;250.70;97.17;;;;;;;;;;5054124;28;20688;-80
2024/01/03 13:23:33;;;;;;;248.37;96.23;;;;;;;;;;5054838;28;20215;-80
2024/01/03 13:26:00;;;;;;;258.70;78.63;;;;;;;;;;5053703;28;20228;-80
2024/01/03 13:28:27;;;;;;;295.10;106.97;;;;;;;;;;5038200;28;20616;-81
2024/01/03 13:30:54;;;;;;;177.40;68.17;;;;;;;;;;5046156;28;20289;-81
2024/01/03 13:33:22;;;;;;;380.70;148.77;;;;;;;;;;5051730;28;20239;-81
2024/01/03 13:35:49;;;;;;;260.17;103.27;;;;;;;;;;5052640;28;20319;-81
2024/01/03 13:38:16;;;;;;;74.60;33.63;;;;;;;;;;5052550;28;20238;-81
2024/01/03 13:40:46;;;;;;;412.20;133.80;;;;;;;;;;5046468;28;20574;-80
2024/01/03 13:43:13;;;;;;;613.07;174.50;;;;;;;;;;5048195;28;20232;-80
2024/01/03 13:45:40;;;;;;;590.67;172.03;;;;;;;;;;5052201;28;20228;-79
2024/01/03 13:48:08;;;;;;;369.50;99.80;;;;;;;;;;5052559;28;20622;-79
2024/01/03 13:50:36;;;;;;;49.00;23.33;;;;;;;;;;5052925;28;20232;-79
2024/01/03 13:53:05;;;;;;;51.17;20.97;;;;;;;;;;5052587;28;20224;-80
2024/01/03 13:55:33;;;;;;;32.00;16.57;;;;;;;;;;5052662;28;20239;-79
2024/01/03 13:58:01;;;;;;;182.47;62.07;;;;;;;;;;5050773;28;20236;-79
2024/01/03 14:00:30;;;;;;;191.97;64.10;;;;;;;;;;5052573;28;20587;-79
2024/01/03 14:02:57;;;;;;;126.37;42.20;;;;;;;;;;5052693;28;20227;-80
2024/01/03 14:05:25;;;;;;;300.83;94.70;;;;;;;;;;5052309;28;20247;-80
2024/01/03 14:07:52;;;;;;;302.10;101.00;;;;;;;;;;5052398;28;20244;-81
2024/01/03 14:10:19;;;;;;;89.23;33.57;;;;;;;;;;5052245;28;20250;-79
2024/01/03 14:12:48;;;;;;;26.47;13.93;;;;;;;;;;5051645;28;20232;-80
2024/01/03 14:15:15;;;;;;;26.20;13.80;;;;;;;;;;5032053;28;20577;-79
2024/01/03 14:17:42;;;;;;;163.67;48.00;;;;;;;;;;5032515;28;20235;-79